Terminal Aerodrome Forecast
Issued by NWS Shreveport, LA

Home | Current Version | Previous Version | Text Only | Print | Product List | Glossary On
Versions: 1 2 3 4 5 6 7 8 9 10 11 12 13 14 15 16 17 18 19 20 21 22
537
FTUS44 KSHV 212047 AAA
TAFELD
TAF AMD
KELD 212047Z 2121/2218 03013G20KT 4SM SHRA BR SCT008 BKN040 OVC060
      TEMPO 2121/2124 2SM +SHRA BR BKN008 OVC040
     FM220000 03012G18KT 4SM SHRA OVC007
     FM220300 04007KT 5SM SHRA BKN005 OVC010
     FM220900 05006KT 3SM -SHRA OVC008=

USA.gov is the U.S. government's official web portal to all federal, state and local government web resources and services.